createdAt,value
2023-05-14T00:01:04.626Z,96200.44
2023-05-14T00:03:31.013Z,96204.22
2023-05-14T00:05:57.395Z,96200.16
2023-05-14T00:08:23.742Z,96196.25
2023-05-14T00:10:52.095Z,96201.31
2023-05-14T00:13:18.397Z,96193.97
2023-05-14T00:15:44.765Z,96198.72
2023-05-14T00:18:11.266Z,96195.97
2023-05-14T00:20:37.585Z,96192.66
2023-05-14T00:23:03.917Z,96194.81
2023-05-14T00:25:30.240Z,96195.06
2023-05-14T00:27:56.538Z,96182.59
2023-05-14T00:30:23.127Z,96180.94
2023-05-14T00:32:49.579Z,96190.84
2023-05-14T00:35:15.928Z,96183.34
2023-05-14T00:37:42.258Z,96183.94
2023-05-14T00:40:08.645Z,96184.16
2023-05-14T00:42:35.038Z,96178.38
2023-05-14T00:45:01.410Z,96162.66
2023-05-14T00:47:27.852Z,96175.25
2023-05-14T00:49:54.195Z,96166.31
2023-05-14T00:52:20.522Z,96165.69
2023-05-14T00:54:46.819Z,96167.19
2023-05-14T00:57:13.128Z,96171.63
2023-05-14T00:59:39.486Z,96171.72
2023-05-14T01:02:05.787Z,96157.66
2023-05-14T01:04:32.093Z,96160.56
2023-05-14T01:06:58.409Z,96161.00
2023-05-14T01:09:24.728Z,96159.47
2023-05-14T01:11:51.067Z,96152.19
2023-05-14T01:14:17.388Z,96161.16
2023-05-14T01:16:43.739Z,96158.97
2023-05-14T01:19:10.224Z,96153.41
2023-05-14T01:21:36.684Z,96151.06
2023-05-14T01:24:02.990Z,96149.81
2023-05-14T01:26:29.296Z,96156.13
2023-05-14T01:28:55.611Z,96155.44
2023-05-14T01:31:21.930Z,96149.41
2023-05-14T01:33:48.236Z,96157.13
2023-05-14T01:36:14.570Z,96150.75
2023-05-14T01:38:40.883Z,96152.75
2023-05-14T01:41:07.179Z,96156.50
2023-05-14T01:43:33.562Z,96157.69
2023-05-14T01:45:59.960Z,96156.59
2023-05-14T01:48:26.335Z,96150.06
2023-05-14T01:50:52.676Z,96149.41
2023-05-14T01:53:19.000Z,96151.44
2023-05-14T01:55:45.315Z,96150.88
2023-05-14T01:58:11.633Z,96154.34
2023-05-14T02:00:37.942Z,96155.19
2023-05-14T02:03:04.339Z,96150.88
2023-05-14T02:05:30.740Z,96151.53
2023-05-14T02:07:57.058Z,96150.88
2023-05-14T02:10:23.499Z,96159.16
2023-05-14T02:12:50.072Z,96152.00
2023-05-14T02:15:16.379Z,96152.56
2023-05-14T02:17:42.761Z,96154.94
2023-05-14T02:20:09.112Z,96157.53
2023-05-14T02:22:35.424Z,96151.66
2023-05-14T02:25:01.724Z,96160.72
2023-05-14T02:27:28.067Z,96151.53
2023-05-14T02:29:54.394Z,96148.03
2023-05-14T02:32:20.758Z,96150.75
2023-05-14T02:34:47.123Z,96142.38
2023-05-14T02:37:13.455Z,96149.06
2023-05-14T02:39:39.745Z,96139.19
2023-05-14T02:42:06.072Z,96144.03
2023-05-14T02:44:32.399Z,96138.91
2023-05-14T02:46:58.760Z,96138.13
2023-05-14T02:49:25.128Z,96139.59
2023-05-14T02:51:51.417Z,96130.25
2023-05-14T02:54:17.735Z,96133.84
2023-05-14T02:56:44.056Z,96130.50
2023-05-14T02:59:10.398Z,96130.41
2023-05-14T03:01:37.231Z,96132.09
2023-05-14T03:04:04.070Z,96136.03
2023-05-14T03:06:30.378Z,96129.88
2023-05-14T03:08:56.693Z,96126.38
2023-05-14T03:11:23.037Z,96126.88
2023-05-14T03:13:49.331Z,96120.38
2023-05-14T03:16:15.683Z,96130.81
2023-05-14T03:18:42.038Z,96128.63
2023-05-14T03:21:08.374Z,96128.16
2023-05-14T03:23:34.704Z,96123.59
2023-05-14T03:26:01.023Z,96125.53
2023-05-14T03:28:27.319Z,96124.50
2023-05-14T03:30:53.665Z,96124.72
2023-05-14T03:33:20.091Z,96121.03
2023-05-14T03:35:46.418Z,96132.63
2023-05-14T03:38:12.726Z,96124.75
2023-05-14T03:40:39.089Z,96123.19
2023-05-14T03:43:05.438Z,96123.81
2023-05-14T03:45:31.730Z,96127.59
2023-05-14T03:48:01.562Z,96123.81
2023-05-14T03:50:27.923Z,96132.53
2023-05-14T03:52:54.214Z,96128.84
2023-05-14T03:55:20.540Z,96132.47
2023-05-14T03:57:46.834Z,96133.97
2023-05-14T04:00:13.139Z,96144.19
2023-05-14T04:02:39.614Z,96140.38
2023-05-14T04:05:06.067Z,96135.94
2023-05-14T04:07:32.375Z,96145.78
2023-05-14T04:09:58.809Z,96135.91
2023-05-14T04:12:25.105Z,96133.00
2023-05-14T04:14:51.396Z,96140.50
2023-05-14T04:17:17.748Z,96140.28
2023-05-14T04:19:44.052Z,96133.34
2023-05-14T04:22:10.360Z,96129.88
2023-05-14T04:24:36.689Z,96129.72
2023-05-14T04:27:02.976Z,96135.47
2023-05-14T04:29:29.298Z,96138.59
2023-05-14T04:31:55.705Z,96135.47
2023-05-14T04:34:22.100Z,96139.84
2023-05-14T04:36:48.400Z,96135.22
2023-05-14T04:39:14.710Z,96130.97
2023-05-14T04:41:41.018Z,96140.47
2023-05-14T04:44:07.325Z,96135.53
2023-05-14T04:46:33.664Z,96145.19
2023-05-14T04:49:00.041Z,96142.03
2023-05-14T04:51:26.346Z,96138.91
2023-05-14T04:53:52.673Z,96135.47
2023-05-14T04:56:18.988Z,96139.38
2023-05-14T04:58:45.302Z,96140.81
2023-05-14T05:01:11.629Z,96136.69
2023-05-14T05:03:38.163Z,96146.41
2023-05-14T05:06:04.484Z,96144.84
2023-05-14T05:08:30.818Z,96140.22
2023-05-14T05:10:57.120Z,96147.88
2023-05-14T05:13:23.427Z,96148.75
2023-05-14T05:15:49.826Z,96148.75
2023-05-14T05:18:16.164Z,96154.03
2023-05-14T05:20:44.786Z,96154.81
2023-05-14T05:23:11.141Z,96152.81
2023-05-14T05:25:37.446Z,96155.06
2023-05-14T05:28:03.756Z,96148.44
2023-05-14T05:30:30.072Z,96153.16
2023-05-14T05:32:56.392Z,96148.69
2023-05-14T05:35:22.715Z,96155.25
2023-05-14T05:37:49.095Z,96153.66
2023-05-14T05:40:15.393Z,96146.72
2023-05-14T05:42:41.705Z,96149.44
2023-05-14T05:45:08.051Z,96142.56
2023-05-14T05:47:34.394Z,96144.38
2023-05-14T05:50:00.764Z,96143.47
2023-05-14T05:52:27.255Z,96144.00
2023-05-14T05:54:53.546Z,96157.25
2023-05-14T05:57:19.838Z,96152.31
2023-05-14T05:59:46.153Z,96156.91
2023-05-14T06:02:12.492Z,96149.59
2023-05-14T06:04:38.807Z,96159.97
2023-05-14T06:07:05.123Z,96157.81
2023-05-14T06:09:31.437Z,96165.88
2023-05-14T06:11:57.781Z,96166.09
2023-05-14T06:14:24.111Z,96162.72
2023-05-14T06:16:50.469Z,96167.06
2023-05-14T06:19:17.107Z,96159.22
2023-05-14T06:21:43.556Z,96166.31
2023-05-14T06:24:09.879Z,96161.47
2023-05-14T06:26:36.212Z,96165.13
2023-05-14T06:29:02.589Z,96159.59
2023-05-14T06:31:28.886Z,96164.81
2023-05-14T06:33:55.215Z,96168.81
2023-05-14T06:36:21.662Z,96166.06
2023-05-14T06:38:47.972Z,96166.28
2023-05-14T06:41:14.280Z,96169.91
2023-05-14T06:43:40.599Z,96169.13
2023-05-14T06:46:06.908Z,96171.44
2023-05-14T06:48:33.242Z,96169.25
2023-05-14T06:50:59.633Z,96165.50
2023-05-14T06:53:25.958Z,96165.69
2023-05-14T06:55:52.341Z,96160.38
2023-05-14T06:58:18.730Z,96166.06
2023-05-14T07:00:45.042Z,96158.22
2023-05-14T07:03:11.371Z,96160.09
2023-05-14T07:05:37.800Z,96156.78
2023-05-14T07:08:04.110Z,96155.09
2023-05-14T07:10:30.421Z,96151.97
2023-05-14T07:12:56.759Z,96152.63
2023-05-14T07:15:23.102Z,96148.00
2023-05-14T07:17:49.462Z,96151.94
2023-05-14T07:20:15.849Z,96150.78
2023-05-14T07:22:42.132Z,96148.44
2023-05-14T07:25:08.441Z,96142.91
2023-05-14T07:27:34.765Z,96139.84
2023-05-14T07:30:01.064Z,96146.56
2023-05-14T07:32:27.377Z,96137.66
2023-05-14T07:34:53.765Z,96133.13
2023-05-14T07:37:21.009Z,96137.72
2023-05-14T07:39:48.739Z,96114.66
2023-05-14T07:42:24.646Z,96121.97
2023-05-14T07:44:58.469Z,96107.56
2023-05-14T07:47:24.874Z,96124.72
2023-05-14T07:49:51.266Z,96123.22
2023-05-14T07:52:17.553Z,96115.72
2023-05-14T07:54:43.881Z,96116.81
2023-05-14T07:57:10.170Z,96118.09
2023-05-14T07:59:36.458Z,96118.16
2023-05-14T08:02:02.778Z,96120.97
2023-05-14T08:04:29.270Z,96125.81
2023-05-14T08:06:55.691Z,96131.25
2023-05-14T08:09:22.002Z,96127.16
2023-05-14T08:11:48.317Z,96123.50
2023-05-14T08:14:14.627Z,96123.63
2023-05-14T08:16:41.031Z,96118.63
2023-05-14T08:19:07.378Z,96119.75
2023-05-14T08:21:33.716Z,96110.38
2023-05-14T08:24:00.045Z,96123.19
2023-05-14T08:26:26.333Z,96110.25
2023-05-14T08:28:52.663Z,96114.13
2023-05-14T08:31:19.047Z,96115.41
2023-05-14T08:33:45.412Z,96116.75
2023-05-14T08:36:11.707Z,96116.63
2023-05-14T08:38:38.085Z,96120.13
2023-05-14T08:41:04.375Z,96130.13
2023-05-14T08:43:30.681Z,96125.81
2023-05-14T08:45:56.986Z,96117.91
2023-05-14T08:48:23.315Z,96124.75
2023-05-14T08:50:49.640Z,96119.66
2023-05-14T08:53:15.956Z,96123.72
2023-05-14T08:55:42.255Z,96120.75
2023-05-14T08:58:08.617Z,96112.69
2023-05-14T09:00:34.934Z,96119.97
2023-05-14T09:03:01.317Z,96128.72
2023-05-14T09:05:27.650Z,96111.81
2023-05-14T09:07:53.980Z,96117.38
2023-05-14T09:10:20.266Z,96107.03
2023-05-14T09:12:46.555Z,96104.44
2023-05-14T09:15:12.897Z,96112.75
2023-05-14T09:17:39.276Z,96106.34
2023-05-14T09:20:05.645Z,96102.25
2023-05-14T09:22:31.948Z,96112.22
2023-05-14T09:24:58.246Z,96101.69
2023-05-14T09:27:24.546Z,96100.47
2023-05-14T09:29:50.851Z,96101.75
2023-05-14T09:32:17.147Z,96103.13
2023-05-14T09:34:43.442Z,96099.78
2023-05-14T09:37:09.780Z,96100.84
2023-05-14T09:39:36.082Z,96090.78
2023-05-14T09:42:02.381Z,96098.50
2023-05-14T09:44:28.734Z,96093.22
2023-05-14T09:46:55.079Z,96090.69
2023-05-14T09:49:21.393Z,96091.63
2023-05-14T09:51:47.707Z,96086.59
2023-05-14T09:54:13.999Z,96087.47
2023-05-14T09:56:40.311Z,96091.59
2023-05-14T09:59:06.620Z,96092.25
2023-05-14T10:01:32.949Z,96092.88
2023-05-14T10:03:59.336Z,96087.47
2023-05-14T10:06:25.708Z,96094.56
2023-05-14T10:08:52.014Z,96084.56
2023-05-14T10:11:18.311Z,96091.69
2023-05-14T10:13:44.629Z,96082.88
2023-05-14T10:16:10.926Z,96087.41
2023-05-14T10:18:37.284Z,96083.41
2023-05-14T10:21:03.660Z,96083.31
2023-05-14T10:23:29.950Z,96081.41
2023-05-14T10:25:56.243Z,96085.81
2023-05-14T10:28:22.556Z,96084.91
2023-05-14T10:30:49.049Z,96080.31
2023-05-14T10:33:15.484Z,96087.06
2023-05-14T10:35:41.884Z,96079.78
2023-05-14T10:38:08.199Z,96081.25
2023-05-14T10:40:34.506Z,96078.09
2023-05-14T10:43:00.813Z,96075.91
2023-05-14T10:45:27.108Z,96074.47
2023-05-14T10:47:53.441Z,96081.53
2023-05-14T10:50:19.883Z,96081.56
2023-05-14T10:52:46.269Z,96080.00
2023-05-14T10:55:12.611Z,96084.22
2023-05-14T10:57:38.940Z,96083.28
2023-05-14T11:00:05.311Z,96085.75
2023-05-14T11:02:31.672Z,96075.91
2023-05-14T11:04:58.029Z,96072.41
2023-05-14T11:07:24.314Z,96068.50
2023-05-14T11:09:50.610Z,96070.84
2023-05-14T11:12:16.924Z,96065.91
2023-05-14T11:14:43.212Z,96061.97
2023-05-14T11:17:09.550Z,96061.41
2023-05-14T11:19:35.914Z,96061.91
2023-05-14T11:22:02.199Z,96063.78
2023-05-14T11:24:28.636Z,96054.28
2023-05-14T11:26:54.944Z,96059.00
2023-05-14T11:29:21.242Z,96051.25
2023-05-14T11:31:47.607Z,96046.59
2023-05-14T11:34:13.931Z,96046.59
2023-05-14T11:36:40.215Z,96051.19
2023-05-14T11:39:06.499Z,96042.28
2023-05-14T11:41:32.803Z,96035.34
2023-05-14T11:43:59.108Z,96044.81
2023-05-14T11:46:25.422Z,96038.56
2023-05-14T11:48:51.777Z,96037.25
2023-05-14T11:51:18.064Z,96034.56
2023-05-14T11:53:44.437Z,96029.91
2023-05-14T11:56:10.781Z,96028.53
2023-05-14T11:58:37.104Z,96022.06
2023-05-14T12:01:03.399Z,96025.09
2023-05-14T12:03:30.233Z,96021.22
2023-05-14T12:05:56.753Z,96017.91
2023-05-14T12:08:23.125Z,96017.59
2023-05-14T12:10:49.417Z,96015.56
2023-05-14T12:13:15.724Z,96009.81
2023-05-14T12:15:42.067Z,96016.88
2023-05-14T12:18:22.932Z,96012.97
2023-05-14T12:20:50.047Z,96005.28
2023-05-14T12:23:16.384Z,96011.66
2023-05-14T12:25:42.690Z,96002.84
2023-05-14T12:28:08.981Z,96004.59
2023-05-14T12:30:35.368Z,96000.69
2023-05-14T12:33:01.767Z,96001.56
2023-05-14T12:35:28.196Z,95996.78
2023-05-14T12:37:54.513Z,95991.84
2023-05-14T12:40:20.789Z,95991.84
2023-05-14T12:42:47.073Z,95993.63
2023-05-14T12:45:13.386Z,95986.78
2023-05-14T12:47:39.709Z,95991.25
2023-05-14T12:50:06.214Z,95994.69
2023-05-14T12:52:38.433Z,95987.63
2023-05-14T12:55:05.842Z,95986.44
2023-05-14T12:57:32.192Z,96003.84
2023-05-14T12:59:58.498Z,95990.91
2023-05-14T13:02:24.797Z,95983.81
2023-05-14T13:04:51.130Z,95994.78
2023-05-14T13:07:17.418Z,95992.03
2023-05-14T13:09:43.695Z,95985.25
2023-05-14T13:12:10.008Z,95980.97
2023-05-14T13:14:36.346Z,95970.31
2023-05-14T13:17:02.764Z,95973.81
2023-05-14T13:19:29.084Z,95970.75
2023-05-14T13:21:55.370Z,95967.28
2023-05-14T13:24:21.669Z,95959.66
2023-05-14T13:26:47.975Z,95964.44
2023-05-14T13:29:14.280Z,95964.88
2023-05-14T13:31:40.581Z,95969.72
2023-05-14T13:34:06.904Z,95968.75
2023-05-14T13:36:33.198Z,95953.00
2023-05-14T13:38:59.492Z,95954.88
2023-05-14T13:41:25.803Z,95954.19
2023-05-14T13:43:52.093Z,95948.28
2023-05-14T13:46:18.403Z,95951.25
2023-05-14T13:48:44.743Z,95946.88
2023-05-14T13:51:11.040Z,95949.59
2023-05-14T13:53:37.451Z,95940.25
2023-05-14T13:56:03.760Z,95936.28
2023-05-14T13:58:30.163Z,95939.03
2023-05-14T14:00:56.468Z,95940.38
2023-05-14T14:03:22.839Z,95923.56
2023-05-14T14:05:49.117Z,95924.19
2023-05-14T14:08:23.251Z,95921.44
2023-05-14T14:10:49.979Z,95925.22
2023-05-14T14:13:16.316Z,95923.94
2023-05-14T14:15:42.612Z,95921.78
2023-05-14T14:18:09.032Z,95916.53
2023-05-14T14:20:35.352Z,95914.13
2023-05-14T14:23:01.636Z,95915.09
2023-05-14T14:25:27.960Z,95905.72
2023-05-14T14:27:54.294Z,95910.22
2023-05-14T14:30:20.605Z,95907.13
2023-05-14T14:32:46.966Z,95905.94
2023-05-14T14:35:13.297Z,95899.94
2023-05-14T14:37:39.636Z,95901.69
2023-05-14T14:40:05.990Z,95902.53
2023-05-14T14:42:32.273Z,95895.13
2023-05-14T14:44:58.561Z,95902.75
2023-05-14T14:47:24.884Z,95900.53
2023-05-14T14:49:51.187Z,95899.84
2023-05-14T14:52:17.482Z,95907.13
2023-05-14T14:54:43.805Z,95915.53
2023-05-14T14:57:10.089Z,95903.69
2023-05-14T14:59:36.398Z,95919.41
2023-05-14T15:02:02.730Z,95925.63
2023-05-14T15:04:29.039Z,95922.03
2023-05-14T15:06:55.345Z,95931.53
2023-05-14T15:09:21.700Z,95932.31
2023-05-14T15:11:48.010Z,95948.53
2023-05-14T15:14:14.311Z,95933.78
2023-05-14T15:16:40.682Z,95941.34
2023-05-14T15:19:07.056Z,95952.59
2023-05-14T15:21:33.371Z,95950.84
2023-05-14T15:23:59.690Z,95951.63
2023-05-14T15:26:25.991Z,95955.84
2023-05-14T15:28:52.296Z,95963.56
2023-05-14T15:31:18.651Z,95973.53
2023-05-14T15:33:44.972Z,95979.31
2023-05-14T15:36:11.266Z,95976.91
2023-05-14T15:38:37.574Z,95979.09
2023-05-14T15:41:03.872Z,95957.44
2023-05-14T15:43:30.168Z,95955.66
2023-05-14T15:45:56.525Z,95958.41
2023-05-14T15:48:22.883Z,95954.69
2023-05-14T15:50:49.760Z,95962.41
2023-05-14T15:53:16.486Z,95953.19
2023-05-14T15:55:42.823Z,95948.00
2023-05-14T15:58:09.127Z,95954.31
2023-05-14T16:00:35.478Z,95942.13
2023-05-14T16:03:01.893Z,95941.53
2023-05-14T16:05:28.220Z,95930.47
2023-05-14T16:07:54.544Z,95923.69
2023-05-14T16:10:20.854Z,95921.25
2023-05-14T16:12:47.203Z,95920.75
2023-05-14T16:15:13.566Z,95927.56
2023-05-14T16:17:39.935Z,95927.00
2023-05-14T16:20:06.253Z,95925.53
2023-05-14T16:22:32.588Z,95942.28
2023-05-14T16:24:59.759Z,95941.03
2023-05-14T16:27:27.544Z,95943.44
2023-05-14T16:29:53.873Z,95945.78
2023-05-14T16:32:20.291Z,95956.19
2023-05-14T16:34:46.618Z,95950.16
2023-05-14T16:37:13.491Z,95957.19
2023-05-14T16:39:39.851Z,95944.28
2023-05-14T16:42:06.131Z,95956.09
2023-05-14T16:44:32.449Z,95962.16
2023-05-14T16:46:58.750Z,95963.16
2023-05-14T16:49:25.059Z,95962.44
2023-05-14T16:51:51.376Z,95971.75
2023-05-14T16:54:17.664Z,95963.84
2023-05-14T16:56:43.966Z,95970.78
2023-05-14T16:59:10.260Z,95977.19
2023-05-14T17:01:37.069Z,95975.09
2023-05-14T17:04:03.415Z,95976.56
2023-05-14T17:06:29.772Z,95976.69
2023-05-14T17:08:56.061Z,95978.81
2023-05-14T17:11:22.354Z,95984.19
2023-05-14T17:13:48.671Z,95986.31
2023-05-14T17:16:15.010Z,95988.69
2023-05-14T17:18:41.365Z,95994.13
2023-05-14T17:21:07.709Z,96011.16
2023-05-14T17:23:34.000Z,96038.94
2023-05-14T17:26:00.327Z,96045.69
2023-05-14T17:28:26.662Z,96048.19
2023-05-14T17:30:52.967Z,96051.94
2023-05-14T17:33:19.288Z,96058.94
2023-05-14T17:35:45.611Z,96062.69
2023-05-14T17:38:11.921Z,96061.44
2023-05-14T17:40:38.208Z,96070.78
2023-05-14T17:43:04.533Z,96086.56
2023-05-14T17:45:39.405Z,96101.63
2023-05-14T17:48:09.271Z,96114.19
2023-05-14T17:50:35.596Z,96118.66
2023-05-14T17:53:01.890Z,96122.28
2023-05-14T17:55:28.207Z,96123.84
2023-05-14T17:57:54.502Z,96118.72
2023-05-14T18:00:20.807Z,96120.44
2023-05-14T18:02:47.223Z,96116.84
2023-05-14T18:05:13.588Z,96119.91
2023-05-14T18:07:39.891Z,96129.25
2023-05-14T18:10:06.204Z,96135.97
2023-05-14T18:12:32.497Z,96122.13
2023-05-14T18:14:58.779Z,96121.34
2023-05-14T18:17:25.109Z,96105.22
2023-05-14T18:19:51.424Z,96107.59
2023-05-14T18:22:17.711Z,96119.31
2023-05-14T18:24:44.081Z,96118.13
2023-05-14T18:27:10.386Z,96125.53
2023-05-14T18:29:36.686Z,96116.72
2023-05-14T18:32:03.002Z,96127.84
2023-05-14T18:34:29.324Z,96126.28
2023-05-14T18:36:55.620Z,96112.00
2023-05-14T18:39:21.944Z,96123.66
2023-05-14T18:41:48.258Z,96119.88
2023-05-14T18:44:14.641Z,96116.84
2023-05-14T18:46:41.073Z,96127.03
2023-05-14T18:49:07.481Z,96134.50
2023-05-14T18:51:33.773Z,96135.16
2023-05-14T18:54:00.122Z,96132.94
2023-05-14T18:56:26.429Z,96140.50
2023-05-14T18:58:52.784Z,96139.81
2023-05-14T19:01:19.141Z,96143.09
2023-05-14T19:03:45.560Z,96134.84
2023-05-14T19:06:11.924Z,96134.31
2023-05-14T19:08:38.255Z,96135.78
2023-05-14T19:11:04.562Z,96133.06
2023-05-14T19:13:30.866Z,96135.38
2023-05-14T19:15:57.209Z,96135.09
2023-05-14T19:18:23.523Z,96141.00
2023-05-14T19:20:49.813Z,96136.59
2023-05-14T19:23:16.158Z,96134.34
2023-05-14T19:25:42.456Z,96142.28
2023-05-14T19:28:08.760Z,96145.47
2023-05-14T19:30:35.119Z,96149.19
2023-05-14T19:33:01.500Z,96141.25
2023-05-14T19:35:27.838Z,96140.81
2023-05-14T19:37:54.285Z,96143.72
2023-05-14T19:40:20.593Z,96143.69
2023-05-14T19:42:46.886Z,96137.66
2023-05-14T19:45:13.222Z,96136.28
2023-05-14T19:47:39.637Z,96134.63
2023-05-14T19:50:06.010Z,96132.56
2023-05-14T19:52:32.326Z,96138.94
2023-05-14T19:54:58.622Z,96129.94
2023-05-14T19:57:24.923Z,96129.28
2023-05-14T19:59:51.239Z,96133.66
2023-05-14T20:02:17.601Z,96135.59
2023-05-14T20:04:43.926Z,96129.44
2023-05-14T20:07:10.247Z,96136.38
2023-05-14T20:09:36.553Z,96133.41
2023-05-14T20:12:02.853Z,96128.06
2023-05-14T20:14:29.183Z,96127.25
2023-05-14T20:16:55.557Z,96127.53
2023-05-14T20:19:22.117Z,96131.72
2023-05-14T20:21:48.473Z,96135.38
2023-05-14T20:24:14.764Z,96132.88
2023-05-14T20:26:41.056Z,96133.69
2023-05-14T20:29:07.459Z,96126.91
2023-05-14T20:31:33.776Z,96128.53
2023-05-14T20:34:00.073Z,96125.66
2023-05-14T20:36:26.471Z,96119.28
2023-05-14T20:38:52.764Z,96129.56
2023-05-14T20:41:19.058Z,96128.38
2023-05-14T20:43:45.394Z,96119.69
2023-05-14T20:46:11.774Z,96119.75
2023-05-14T20:48:38.095Z,96124.59
2023-05-14T20:51:04.429Z,96117.41
2023-05-14T20:53:30.727Z,96108.34
2023-05-14T20:55:57.033Z,96115.78
2023-05-14T20:58:23.380Z,96118.63
2023-05-14T21:00:49.673Z,96120.47
2023-05-14T21:03:16.099Z,96121.88
2023-05-14T21:05:42.582Z,96124.56
2023-05-14T21:08:08.939Z,96121.53
2023-05-14T21:10:35.250Z,96123.47
2023-05-14T21:13:01.588Z,96129.91
2023-05-14T21:15:27.893Z,96124.44
2023-05-14T21:17:54.295Z,96125.63
2023-05-14T21:20:20.683Z,96123.41
2023-05-14T21:22:46.986Z,96125.09
2023-05-14T21:25:13.298Z,96126.41
2023-05-14T21:27:39.703Z,96126.19
2023-05-14T21:30:05.997Z,96126.19
2023-05-14T21:32:32.319Z,96123.81
2023-05-14T21:34:58.720Z,96124.75
2023-05-14T21:37:25.031Z,96122.69
2023-05-14T21:39:51.350Z,96135.00
2023-05-14T21:42:17.752Z,96141.19
2023-05-14T21:44:44.070Z,96148.66
2023-05-14T21:47:10.392Z,96137.22
2023-05-14T21:49:36.737Z,96133.47
2023-05-14T21:52:03.221Z,96134.75
2023-05-14T21:54:29.524Z,96141.91
2023-05-14T21:56:55.885Z,96136.28
2023-05-14T21:59:22.183Z,96135.81
2023-05-14T22:02:05.707Z,96137.13
2023-05-14T22:04:32.971Z,96135.88
2023-05-14T22:07:01.207Z,96139.22
2023-05-14T22:09:31.096Z,96139.81
2023-05-14T22:11:57.438Z,96126.91
2023-05-14T22:14:23.737Z,96126.44
2023-05-14T22:16:50.100Z,96134.25
2023-05-14T22:19:16.590Z,96133.34
2023-05-14T22:21:43.004Z,96130.47
2023-05-14T22:24:09.301Z,96138.78
2023-05-14T22:26:35.621Z,96144.59
2023-05-14T22:29:01.949Z,96140.34
2023-05-14T22:31:28.395Z,96140.59
2023-05-14T22:33:54.812Z,96136.00
2023-05-14T22:36:21.104Z,96137.75
2023-05-14T22:38:47.421Z,96134.44
2023-05-14T22:41:13.752Z,96136.88
2023-05-14T22:43:40.055Z,96140.81
2023-05-14T22:46:06.376Z,96137.78
2023-05-14T22:48:32.754Z,96131.28
2023-05-14T22:50:59.068Z,96123.56
2023-05-14T22:53:25.467Z,96126.69
2023-05-14T22:55:51.892Z,96134.22
2023-05-14T22:58:18.274Z,96129.50
2023-05-14T23:00:44.582Z,96137.69
2023-05-14T23:03:10.902Z,96133.41
2023-05-14T23:05:37.203Z,96129.63
2023-05-14T23:08:03.501Z,96130.34
2023-05-14T23:10:29.842Z,96135.03
2023-05-14T23:12:56.134Z,96128.25
2023-05-14T23:15:22.486Z,96127.72
2023-05-14T23:17:48.894Z,96128.63
2023-05-14T23:20:15.228Z,96115.63
2023-05-14T23:22:41.532Z,96107.44
2023-05-14T23:25:07.853Z,96106.06
2023-05-14T23:27:34.207Z,96116.34
2023-05-14T23:30:00.581Z,96120.63
2023-05-14T23:32:27.027Z,96113.03
2023-05-14T23:34:53.469Z,96108.13
2023-05-14T23:37:19.842Z,96103.00
2023-05-14T23:39:46.233Z,96099.19
2023-05-14T23:42:12.639Z,96090.78
2023-05-14T23:44:39.046Z,96089.53
2023-05-14T23:47:05.442Z,96086.09
2023-05-14T23:49:31.854Z,96089.09
2023-05-14T23:51:58.278Z,96078.16
2023-05-14T23:54:24.731Z,96076.59
2023-05-14T23:56:51.111Z,96077.28
2023-05-14T23:59:17.488Z,96075.25
